Time;durP1;ratioP1;P1;durP2;ratioP2;P2;SDS_P1;SDS_P2;PMS_P1;PMS_P2;Temp;Humidity;BMP_temperature;BMP_pressure;BME280_temperature;BME280_humidity;BME280_pressure;Samples;Min_cycle;Max_cycle;Signal;HPM_P1;HPM_P2
2023/08/12 00:01:20;;;;;;;;;;;22.50;89.60;;;;;;5097839;28;19985;-72
2023/08/12 00:03:45;;;;;;;;;;;22.50;89.60;;;;;;5089473;28;19912;-72
2023/08/12 00:06:11;;;;;;;;;;;22.50;89.70;;;;;;5087156;28;20450;-72
2023/08/12 00:08:36;;;;;;;;;;;22.50;89.60;;;;;;5089178;28;19916;-71
2023/08/12 00:11:02;;;;;;;;;;;22.50;89.80;;;;;;5088840;28;19938;-72
2023/08/12 00:13:27;;;;;;;;;;;22.40;89.80;;;;;;5089560;28;19966;-71
2023/08/12 00:15:53;;;;;;;;;;;22.40;89.70;;;;;;5093038;28;20588;-71
2023/08/12 00:18:18;;;;;;;;;;;22.40;89.70;;;;;;5089268;28;19922;-72
2023/08/12 00:20:44;;;;;;;;;;;22.40;89.80;;;;;;5089232;28;19916;-71
2023/08/12 00:23:09;;;;;;;;;;;22.30;90.00;;;;;;5094444;28;19915;-72
2023/08/12 00:25:35;;;;;;;;;;;22.30;90.10;;;;;;5091017;28;19962;-72
2023/08/12 00:28:00;;;;;;;;;;;22.30;90.10;;;;;;5089018;28;19920;-72
2023/08/12 00:30:26;;;;;;;;;;;22.30;90.10;;;;;;5088961;28;19912;-72
2023/08/12 00:32:51;;;;;;;;;;;22.20;90.10;;;;;;5106019;28;19916;-72
2023/08/12 00:35:17;;;;;;;;;;;22.20;90.00;;;;;;5091910;28;20387;-72
2023/08/12 00:37:42;;;;;;;;;;;22.20;90.30;;;;;;5088640;28;19919;-71
2023/08/12 00:40:08;;;;;;;;;;;22.20;90.10;;;;;;5088888;28;19920;-71
2023/08/12 00:42:34;;;;;;;;;;;22.20;90.10;;;;;;5078186;28;19919;-71
2023/08/12 00:44:59;;;;;;;;;;;22.20;90.30;;;;;;5050702;28;19910;-71
2023/08/12 00:47:25;;;;;;;;;;;22.10;90.20;;;;;;5074533;28;20514;-71
2023/08/12 00:49:50;;;;;;;;;;;22.10;90.20;;;;;;5089670;28;19923;-72
2023/08/12 00:52:17;;;;;;;;;;;22.10;90.10;;;;;;5088450;28;19934;-71
2023/08/12 00:54:42;;;;;;;;;;;22.10;90.20;;;;;;5096763;28;20423;-71
2023/08/12 00:57:08;;;;;;;;;;;22.10;90.40;;;;;;5088343;28;19912;-71
2023/08/12 00:59:35;;;;;;;;;;;22.00;90.40;;;;;;5088347;28;19912;-70
2023/08/12 01:02:01;;;;;;;;;;;22.00;90.30;;;;;;5088074;28;20003;-71
2023/08/12 01:04:27;;;;;;;;;;;22.00;90.30;;;;;;5089093;28;20011;-71
2023/08/12 01:06:52;;;;;;;;;;;22.00;90.30;;;;;;5087715;28;19919;-71
2023/08/12 01:09:18;;;;;;;;;;;22.00;90.50;;;;;;5089396;28;19920;-71
2023/08/12 01:11:46;;;;;;;;;;;22.00;90.40;;;;;;5087871;28;19919;-72
2023/08/12 01:14:23;;;;;;;;;;;22.00;90.50;;;;;;5088194;28;20713;-71
2023/08/12 01:16:50;;;;;;;;;;;21.90;90.40;;;;;;5087596;28;19911;-72
2023/08/12 01:19:24;;;;;;;;;;;21.90;90.60;;;;;;5088310;28;19920;-72
2023/08/12 01:21:52;;;;;;;;;;;21.90;90.60;;;;;;5097948;28;19955;-72
2023/08/12 01:24:19;;;;;;;;;;;21.90;90.50;;;;;;5101500;28;20352;-71
2023/08/12 01:26:45;;;;;;;;;;;21.90;90.50;;;;;;5087954;28;19915;-71
2023/08/12 01:29:11;;;;;;;;;;;21.80;90.60;;;;;;5087885;28;19919;-71
2023/08/12 01:31:46;;;;;;;;;;;21.80;90.50;;;;;;5087945;28;19912;-72
2023/08/12 01:34:15;;;;;;;;;;;21.80;90.70;;;;;;5074732;28;19952;-71
2023/08/12 01:36:43;;;;;;;;;;;21.80;90.70;;;;;;5081744;28;19916;-71
2023/08/12 01:39:09;;;;;;;;;;;21.80;90.70;;;;;;5100632;28;19950;-71
2023/08/12 01:41:35;;;;;;;;;;;21.70;90.70;;;;;;5105508;28;19908;-71
2023/08/12 01:44:02;;;;;;;;;;;21.70;90.70;;;;;;5087884;28;19916;-71
2023/08/12 01:46:27;;;;;;;;;;;21.70;90.70;;;;;;5087430;28;19912;-71
2023/08/12 01:48:53;;;;;;;;;;;21.70;90.80;;;;;;5087733;28;19916;-71
2023/08/12 01:51:18;;;;;;;;;;;21.70;90.80;;;;;;5087573;28;20281;-71
2023/08/12 01:53:44;;;;;;;;;;;21.70;90.80;;;;;;5078651;28;19995;-71
2023/08/12 01:56:09;;;;;;;;;;;21.60;90.80;;;;;;5087538;28;19912;-71
2023/08/12 01:58:35;;;;;;;;;;;21.70;91.00;;;;;;5087701;28;19982;-72
2023/08/12 02:01:00;;;;;;;;;;;21.60;90.90;;;;;;5088570;28;20280;-71
2023/08/12 02:03:26;;;;;;;;;;;21.60;90.80;;;;;;5106496;28;19907;-71
2023/08/12 02:05:51;;;;;;;;;;;21.60;90.80;;;;;;5085061;28;19919;-72
2023/08/12 02:08:17;;;;;;;;;;;21.60;90.90;;;;;;5087415;28;20023;-72
2023/08/12 02:10:43;;;;;;;;;;;21.60;91.00;;;;;;5090233;28;19955;-71
2023/08/12 02:13:08;;;;;;;;;;;21.50;90.90;;;;;;5108152;28;19919;-71
2023/08/12 02:15:33;;;;;;;;;;;21.60;91.00;;;;;;5106716;28;19939;-71
2023/08/12 02:17:59;;;;;;;;;;;21.50;90.90;;;;;;5087161;28;19912;-71
2023/08/12 02:20:24;;;;;;;;;;;21.50;91.00;;;;;;5087424;28;19908;-71
2023/08/12 02:22:50;;;;;;;;;;;21.50;91.00;;;;;;5090230;28;20368;-71
2023/08/12 02:25:15;;;;;;;;;;;21.50;91.00;;;;;;5074533;28;19920;-71
2023/08/12 02:27:41;;;;;;;;;;;21.50;91.00;;;;;;5093388;28;19920;-71
2023/08/12 02:30:07;;;;;;;;;;;21.50;91.00;;;;;;5104463;28;19954;-71
2023/08/12 02:32:32;;;;;;;;;;;21.40;91.00;;;;;;5088224;28;19916;-71
2023/08/12 02:34:58;;;;;;;;;;;21.50;91.10;;;;;;5093474;28;20403;-71
2023/08/12 02:37:23;;;;;;;;;;;21.40;91.10;;;;;;5086862;28;19912;-71
2023/08/12 02:39:49;;;;;;;;;;;21.40;91.20;;;;;;5087381;28;19912;-71
2023/08/12 02:42:14;;;;;;;;;;;21.40;91.20;;;;;;5079422;28;19920;-71
2023/08/12 02:44:40;;;;;;;;;;;21.40;91.10;;;;;;5083431;28;20456;-71
2023/08/12 02:47:05;;;;;;;;;;;21.40;91.20;;;;;;5089651;28;19912;-72
2023/08/12 02:49:31;;;;;;;;;;;21.40;91.20;;;;;;5085268;28;19923;-72
2023/08/12 02:51:56;;;;;;;;;;;21.40;91.20;;;;;;5090473;28;19908;-71
2023/08/12 02:54:22;;;;;;;;;;;21.40;91.20;;;;;;5085502;28;20300;-71
2023/08/12 02:56:47;;;;;;;;;;;21.40;91.20;;;;;;5090467;28;19912;-71
2023/08/12 02:59:12;;;;;;;;;;;21.30;91.30;;;;;;5090895;28;20031;-71
2023/08/12 03:01:40;;;;;;;;;;;21.30;91.30;;;;;;5092025;28;19923;-71
2023/08/12 03:04:05;;;;;;;;;;;21.30;91.30;;;;;;5090516;28;19912;-70
2023/08/12 03:06:31;;;;;;;;;;;21.30;91.30;;;;;;5071126;28;19912;-71
2023/08/12 03:08:56;;;;;;;;;;;21.30;91.40;;;;;;5072175;28;20070;-70
2023/08/12 03:11:22;;;;;;;;;;;21.30;91.40;;;;;;5090169;28;19912;-71
2023/08/12 03:13:47;;;;;;;;;;;21.30;91.40;;;;;;5090857;28;20012;-71
2023/08/12 03:16:14;;;;;;;;;;;21.20;91.30;;;;;;5091201;28;19916;-70
2023/08/12 03:18:40;;;;;;;;;;;21.20;91.40;;;;;;5090329;28;20381;-71
2023/08/12 03:21:08;;;;;;;;;;;21.20;91.40;;;;;;5089968;28;19908;-72
2023/08/12 03:23:35;;;;;;;;;;;21.20;91.50;;;;;;5098425;28;19976;-70
2023/08/12 03:26:00;;;;;;;;;;;21.20;91.60;;;;;;5089969;28;19920;-70
2023/08/12 03:28:26;;;;;;;;;;;21.20;91.50;;;;;;5090280;28;19919;-70
2023/08/12 03:30:52;;;;;;;;;;;21.20;91.50;;;;;;5090275;28;19912;-70
2023/08/12 03:33:17;;;;;;;;;;;21.20;91.50;;;;;;5091522;28;20369;-70
2023/08/12 03:35:46;;;;;;;;;;;21.20;91.50;;;;;;5089566;28;19912;-70
2023/08/12 03:38:12;;;;;;;;;;;21.10;91.40;;;;;;5072042;28;19951;-71
2023/08/12 03:40:38;;;;;;;;;;;21.10;91.50;;;;;;5071199;28;20009;-72
2023/08/12 03:43:04;;;;;;;;;;;21.10;91.70;;;;;;5089920;28;19913;-70
2023/08/12 03:45:29;;;;;;;;;;;21.10;91.60;;;;;;5088388;28;20364;-71
2023/08/12 03:47:55;;;;;;;;;;;21.10;91.60;;;;;;5089711;28;19912;-72
2023/08/12 03:50:20;;;;;;;;;;;21.10;91.60;;;;;;5091230;28;20501;-71
2023/08/12 03:52:46;;;;;;;;;;;21.10;91.60;;;;;;5073681;28;19918;-71
2023/08/12 03:55:11;;;;;;;;;;;21.10;91.70;;;;;;5095806;28;20019;-71
2023/08/12 03:57:37;;;;;;;;;;;21.10;91.60;;;;;;5088739;28;19912;-71
2023/08/12 04:00:03;;;;;;;;;;;21.00;91.60;;;;;;5071637;28;19919;-71
2023/08/12 04:02:29;;;;;;;;;;;21.00;91.60;;;;;;5089830;28;20296;-70
2023/08/12 04:04:55;;;;;;;;;;;21.00;91.70;;;;;;5089987;28;19999;-70
2023/08/12 04:07:20;;;;;;;;;;;21.00;91.60;;;;;;5089735;28;19920;-71
2023/08/12 04:09:46;;;;;;;;;;;21.00;91.80;;;;;;5089749;28;20384;-70
2023/08/12 04:12:11;;;;;;;;;;;21.00;91.70;;;;;;5084608;28;19962;-70
2023/08/12 04:14:36;;;;;;;;;;;21.00;91.70;;;;;;5088098;28;19948;-70
2023/08/12 04:17:02;;;;;;;;;;;21.00;91.70;;;;;;5087502;28;20210;-71
2023/08/12 04:19:27;;;;;;;;;;;21.00;91.80;;;;;;5072515;28;19916;-70
2023/08/12 04:21:53;;;;;;;;;;;21.00;91.80;;;;;;5069021;28;19917;-71
2023/08/12 04:24:18;;;;;;;;;;;21.00;91.90;;;;;;5096959;28;19920;-70
2023/08/12 04:26:44;;;;;;;;;;;20.90;91.80;;;;;;5088492;28;20523;-71
2023/08/12 04:29:09;;;;;;;;;;;20.90;91.90;;;;;;5089377;28;20010;-70
2023/08/12 04:31:35;;;;;;;;;;;20.90;91.90;;;;;;5088928;28;19912;-71
2023/08/12 04:34:01;;;;;;;;;;;20.90;91.90;;;;;;5088964;28;19926;-70
2023/08/12 04:36:27;;;;;;;;;;;20.90;92.00;;;;;;5088589;28;20023;-70
2023/08/12 04:38:53;;;;;;;;;;;20.90;91.90;;;;;;5090046;28;20511;-70
2023/08/12 04:41:18;;;;;;;;;;;20.90;91.80;;;;;;5108912;28;19916;-71
2023/08/12 04:43:44;;;;;;;;;;;20.90;92.00;;;;;;5088968;28;19916;-71
2023/08/12 04:46:09;;;;;;;;;;;20.90;92.00;;;;;;5088430;28;20285;-70
2023/08/12 04:48:35;;;;;;;;;;;20.90;92.00;;;;;;5070194;28;19912;-70
2023/08/12 04:51:01;;;;;;;;;;;20.90;92.00;;;;;;5069868;28;19917;-70
2023/08/12 04:53:27;;;;;;;;;;;20.80;92.00;;;;;;5096459;28;19915;-70
2023/08/12 04:55:53;;;;;;;;;;;20.80;92.00;;;;;;5089736;28;19935;-71
2023/08/12 04:58:19;;;;;;;;;;;20.80;91.90;;;;;;5088688;28;20355;-70
2023/08/12 05:00:44;;;;;;;;;;;20.80;91.90;;;;;;5088930;28;19920;-71
2023/08/12 05:03:11;;;;;;;;;;;20.80;92.00;;;;;;5087942;28;20439;-70
2023/08/12 05:05:36;;;;;;;;;;;20.80;92.00;;;;;;5087802;28;19912;-70
2023/08/12 05:08:02;;;;;;;;;;;20.80;92.00;;;;;;5087919;28;19912;-70
2023/08/12 05:10:28;;;;;;;;;;;20.80;92.10;;;;;;5087029;28;20393;-70
2023/08/12 05:12:55;;;;;;;;;;;20.80;92.10;;;;;;5089380;28;20021;-71
2023/08/12 05:15:20;;;;;;;;;;;20.80;92.00;;;;;;5088146;28;19928;-71
2023/08/12 05:17:46;;;;;;;;;;;20.80;92.00;;;;;;5088449;28;19970;-71
2023/08/12 05:20:11;;;;;;;;;;;20.80;92.00;;;;;;5088656;28;19908;-71
2023/08/12 05:22:37;;;;;;;;;;;20.80;92.10;;;;;;5070433;28;20262;-70
2023/08/12 05:25:02;;;;;;;;;;;20.80;92.10;;;;;;5095483;28;19920;-70
2023/08/12 05:27:28;;;;;;;;;;;20.80;92.00;;;;;;5087650;28;19912;-71
2023/08/12 05:29:53;;;;;;;;;;;20.80;92.00;;;;;;5071173;28;19924;-70
2023/08/12 05:32:19;;;;;;;;;;;20.80;92.00;;;;;;5087957;28;20364;-70
2023/08/12 05:34:44;;;;;;;;;;;20.80;92.00;;;;;;5088333;28;19912;-71
2023/08/12 05:37:10;;;;;;;;;;;20.80;92.00;;;;;;5087931;28;19923;-71
2023/08/12 05:39:35;;;;;;;;;;;20.80;92.00;;;;;;5087586;28;20406;-70
2023/08/12 05:42:01;;;;;;;;;;;20.80;91.90;;;;;;5081819;28;19912;-70
2023/08/12 05:44:26;;;;;;;;;;;20.80;92.00;;;;;;5067866;28;19958;-71
2023/08/12 05:46:52;;;;;;;;;;;20.80;92.10;;;;;;5084392;28;19916;-71
2023/08/12 05:49:18;;;;;;;;;;;20.80;92.10;;;;;;5088012;28;19916;-70
2023/08/12 05:51:43;;;;;;;;;;;20.80;92.10;;;;;;5087552;28;19918;-71
2023/08/12 05:54:09;;;;;;;;;;;20.80;92.00;;;;;;5062660;28;19919;-71
2023/08/12 05:56:34;;;;;;;;;;;20.80;92.00;;;;;;5086273;28;20007;-71
2023/08/12 05:59:00;;;;;;;;;;;20.80;92.20;;;;;;5086609;28;19927;-71
2023/08/12 06:01:25;;;;;;;;;;;20.80;92.20;;;;;;5087517;28;19948;-70
2023/08/12 06:03:51;;;;;;;;;;;20.80;92.10;;;;;;5089147;28;19916;-70
2023/08/12 06:06:16;;;;;;;;;;;20.80;92.20;;;;;;5085809;28;19923;-70
2023/08/12 06:08:42;;;;;;;;;;;20.80;92.10;;;;;;5089312;28;20576;-70
2023/08/12 06:11:07;;;;;;;;;;;20.80;92.20;;;;;;5086120;28;19981;-71
2023/08/12 06:13:33;;;;;;;;;;;20.80;92.10;;;;;;5086741;28;19920;-71
2023/08/12 06:15:58;;;;;;;;;;;20.80;92.10;;;;;;5086321;28;19986;-70
2023/08/12 06:18:24;;;;;;;;;;;20.80;92.20;;;;;;5085433;28;20003;-71
2023/08/12 06:20:49;;;;;;;;;;;20.80;92.20;;;;;;5087576;28;19930;-70
2023/08/12 06:23:16;;;;;;;;;;;20.80;92.20;;;;;;5091058;28;19912;-71
2023/08/12 06:25:42;;;;;;;;;;;20.80;92.10;;;;;;5090083;28;19920;-70
2023/08/12 06:28:09;;;;;;;;;;;20.80;92.10;;;;;;5090329;28;20498;-70
2023/08/12 06:30:34;;;;;;;;;;;20.80;92.20;;;;;;5090448;28;20277;-70
2023/08/12 06:33:00;;;;;;;;;;;20.80;92.20;;;;;;5092406;28;19920;-71
2023/08/12 06:35:25;;;;;;;;;;;20.80;92.30;;;;;;5089947;28;19912;-71
2023/08/12 06:37:51;;;;;;;;;;;20.80;92.30;;;;;;5090356;28;20319;-70
2023/08/12 06:40:17;;;;;;;;;;;20.80;92.30;;;;;;5090482;28;19912;-70
2023/08/12 06:42:42;;;;;;;;;;;20.80;92.40;;;;;;5089695;28;19951;-70
2023/08/12 06:45:08;;;;;;;;;;;20.80;92.50;;;;;;5090345;28;19947;-71
2023/08/12 06:47:33;;;;;;;;;;;20.80;92.40;;;;;;5086752;28;19920;-71
2023/08/12 06:49:59;;;;;;;;;;;20.80;92.30;;;;;;5074786;28;19920;-72
2023/08/12 06:52:25;;;;;;;;;;;20.80;92.20;;;;;;5089909;28;19915;-71
2023/08/12 06:54:50;;;;;;;;;;;20.80;92.30;;;;;;5087621;28;19919;-71
2023/08/12 06:57:16;;;;;;;;;;;20.80;92.30;;;;;;5089719;28;19912;-72
2023/08/12 06:59:41;;;;;;;;;;;20.70;92.30;;;;;;5090394;28;20011;-71
2023/08/12 07:02:07;;;;;;;;;;;20.80;92.40;;;;;;5090136;28;19916;-72
2023/08/12 07:04:32;;;;;;;;;;;20.70;92.40;;;;;;5090365;28;19912;-72
2023/08/12 07:06:58;;;;;;;;;;;20.70;92.40;;;;;;5087969;28;20281;-72
2023/08/12 07:09:24;;;;;;;;;;;20.70;92.60;;;;;;5089839;28;19916;-71
2023/08/12 07:11:49;;;;;;;;;;;20.70;92.40;;;;;;5106740;28;20083;-71
2023/08/12 07:14:15;;;;;;;;;;;20.70;92.40;;;;;;5110250;28;19951;-71
2023/08/12 07:16:40;;;;;;;;;;;20.80;92.40;;;;;;5110015;28;19912;-71
2023/08/12 07:19:06;;;;;;;;;;;20.70;92.40;;;;;;5082661;28;19913;-71
2023/08/12 07:21:31;;;;;;;;;;;20.70;92.50;;;;;;5069471;28;19912;-72
2023/08/12 07:23:57;;;;;;;;;;;20.70;92.50;;;;;;5080203;28;20453;-71
2023/08/12 07:26:22;;;;;;;;;;;20.70;92.50;;;;;;5109210;28;19915;-71
2023/08/12 07:28:48;;;;;;;;;;;20.70;92.50;;;;;;5099126;28;19923;-71
2023/08/12 07:31:13;;;;;;;;;;;20.70;92.60;;;;;;5091241;28;20360;-72
2023/08/12 07:33:39;;;;;;;;;;;20.70;92.70;;;;;;5090553;28;19951;-71
2023/08/12 07:36:05;;;;;;;;;;;20.70;92.80;;;;;;5091292;28;20443;-71
2023/08/12 07:38:31;;;;;;;;;;;20.70;93.00;;;;;;5091478;28;19920;-71
2023/08/12 07:40:57;;;;;;;;;;;20.70;92.80;;;;;;5092495;28;20321;-71
2023/08/12 07:43:22;;;;;;;;;;;20.80;93.00;;;;;;5091094;28;19959;-71
2023/08/12 07:45:54;;;;;;;;;;;20.80;92.90;;;;;;5090623;28;19912;-72
2023/08/12 07:48:22;;;;;;;;;;;20.90;93.00;;;;;;5070998;28;20381;-71
2023/08/12 07:50:54;;;;;;;;;;;20.90;93.00;;;;;;5089153;28;19912;-72
2023/08/12 07:53:20;;;;;;;;;;;20.90;93.00;;;;;;5071670;28;19951;-71
2023/08/12 07:55:46;;;;;;;;;;;20.90;93.10;;;;;;5069730;28;19971;-71
2023/08/12 07:58:11;;;;;;;;;;;21.00;93.10;;;;;;5083038;28;19912;-71
2023/08/12 08:00:37;;;;;;;;;;;21.00;93.10;;;;;;5089150;28;19916;-72
2023/08/12 08:03:02;;;;;;;;;;;21.00;93.10;;;;;;5104560;28;19912;-71
2023/08/12 08:05:28;;;;;;;;;;;21.00;93.00;;;;;;5095357;28;19957;-72
2023/08/12 08:07:53;;;;;;;;;;;21.10;93.10;;;;;;5089288;28;20006;-71
2023/08/12 08:10:19;;;;;;;;;;;21.10;93.10;;;;;;5088790;28;19926;-71
2023/08/12 08:12:44;;;;;;;;;;;21.10;93.20;;;;;;5088741;28;19919;-71
2023/08/12 08:15:10;;;;;;;;;;;21.20;93.40;;;;;;5089905;28;20349;-71
2023/08/12 08:17:35;;;;;;;;;;;21.20;93.10;;;;;;5088620;28;19916;-71
2023/08/12 08:20:01;;;;;;;;;;;21.30;93.10;;;;;;5070908;28;20341;-72
2023/08/12 08:22:26;;;;;;;;;;;21.30;93.00;;;;;;5088297;28;20631;-72
2023/08/12 08:24:52;;;;;;;;;;;21.30;93.00;;;;;;5077612;28;19927;-72
2023/08/12 08:27:17;;;;;;;;;;;21.40;92.90;;;;;;5067818;28;19916;-71
2023/08/12 08:29:43;;;;;;;;;;;21.50;93.30;;;;;;5098699;28;19996;-72
2023/08/12 08:32:08;;;;;;;;;;;21.50;93.10;;;;;;5108651;28;19919;-72
2023/08/12 08:34:34;;;;;;;;;;;21.50;93.30;;;;;;5097589;28;19912;-71
2023/08/12 08:36:59;;;;;;;;;;;21.50;93.50;;;;;;5088116;28;20414;-71
2023/08/12 08:39:26;;;;;;;;;;;21.50;93.00;;;;;;5088560;28;19958;-71
2023/08/12 08:41:53;;;;;;;;;;;21.50;93.10;;;;;;5083559;28;19912;-72
2023/08/12 08:44:21;;;;;;;;;;;21.50;93.00;;;;;;5069973;28;20308;-71
2023/08/12 08:46:46;;;;;;;;;;;21.50;93.00;;;;;;5087706;28;19958;-71
2023/08/12 08:49:14;;;;;;;;;;;21.50;93.10;;;;;;5088196;28;19963;-71
2023/08/12 08:51:39;;;;;;;;;;;21.50;93.10;;;;;;5087908;28;19919;-72
2023/08/12 08:54:05;;;;;;;;;;;21.50;93.20;;;;;;5083218;28;19916;-72
2023/08/12 08:56:32;;;;;;;;;;;21.60;93.10;;;;;;5066767;28;19916;-72
2023/08/12 08:58:58;;;;;;;;;;;21.60;93.10;;;;;;5066881;28;20012;-71
2023/08/12 09:01:23;;;;;;;;;;;21.60;93.10;;;;;;5077759;28;20583;-71
2023/08/12 09:03:52;;;;;;;;;;;21.60;93.10;;;;;;5087679;28;19918;-71
2023/08/12 09:06:18;;;;;;;;;;;21.60;93.10;;;;;;5086483;28;20703;-72
2023/08/12 09:08:45;;;;;;;;;;;21.60;93.10;;;;;;5083351;28;19985;-71
2023/08/12 09:11:11;;;;;;;;;;;21.60;93.10;;;;;;5076064;28;20559;-71
2023/08/12 09:13:37;;;;;;;;;;;21.60;93.10;;;;;;5086228;28;19915;-71
2023/08/12 09:16:02;;;;;;;;;;;21.70;93.20;;;;;;5069857;28;19916;-71
2023/08/12 09:18:29;;;;;;;;;;;21.70;93.10;;;;;;5086986;28;20003;-71
2023/08/12 09:20:54;;;;;;;;;;;21.80;93.10;;;;;;5087584;28;20361;-71
2023/08/12 09:23:20;;;;;;;;;;;21.80;93.30;;;;;;5087587;28;19973;-72
2023/08/12 09:25:46;;;;;;;;;;;21.80;93.10;;;;;;5068392;28;19922;-72
2023/08/12 09:28:12;;;;;;;;;;;21.80;93.00;;;;;;5067727;28;19920;-71
2023/08/12 09:30:38;;;;;;;;;;;21.90;93.00;;;;;;5083288;28;20336;-72
2023/08/12 09:33:06;;;;;;;;;;;21.90;93.10;;;;;;5087769;28;19912;-72
2023/08/12 09:35:39;;;;;;;;;;;21.90;93.00;;;;;;5088253;28;19916;-71
2023/08/12 09:38:05;;;;;;;;;;;21.90;93.00;;;;;;5087657;28;20266;-71
2023/08/12 09:40:32;;;;;;;;;;;21.90;93.10;;;;;;5091155;28;19923;-72
2023/08/12 09:42:57;;;;;;;;;;;21.80;93.10;;;;;;5093726;28;19916;-71
2023/08/12 09:45:23;;;;;;;;;;;21.90;93.10;;;;;;5069486;28;20023;-71
2023/08/12 09:47:49;;;;;;;;;;;21.90;93.00;;;;;;5087547;28;19955;-72
2023/08/12 09:50:15;;;;;;;;;;;22.00;93.00;;;;;;5089082;28;19924;-72
2023/08/12 09:52:40;;;;;;;;;;;22.00;92.90;;;;;;5088791;28;20449;-70
2023/08/12 09:55:07;;;;;;;;;;;22.00;92.90;;;;;;5102098;28;19908;-71
2023/08/12 09:57:33;;;;;;;;;;;22.00;92.90;;;;;;5114156;28;19916;-72
2023/08/12 09:59:59;;;;;;;;;;;22.00;92.90;;;;;;5114789;28;19912;-71
2023/08/12 10:02:25;;;;;;;;;;;22.00;93.00;;;;;;5100037;28;19955;-71
2023/08/12 10:04:53;;;;;;;;;;;22.10;93.00;;;;;;5092642;28;19943;-71
2023/08/12 10:07:19;;;;;;;;;;;22.10;93.10;;;;;;5100841;28;20418;-71
2023/08/12 10:09:45;;;;;;;;;;;22.20;93.10;;;;;;5094400;28;19916;-71
2023/08/12 10:12:11;;;;;;;;;;;22.30;93.30;;;;;;5087170;28;19942;-71
2023/08/12 10:14:38;;;;;;;;;;;22.30;93.00;;;;;;5094256;28;20432;-72
2023/08/12 10:17:03;;;;;;;;;;;22.30;93.20;;;;;;5093901;28;19912;-71
2023/08/12 10:19:30;;;;;;;;;;;22.40;93.10;;;;;;5093847;28;19919;-71
2023/08/12 10:21:57;;;;;;;;;;;22.40;93.00;;;;;;5075602;28;20341;-72
2023/08/12 10:24:23;;;;;;;;;;;22.40;93.00;;;;;;5101780;28;20639;-73
2023/08/12 10:26:50;;;;;;;;;;;22.40;93.00;;;;;;5092994;28;19911;-72
2023/08/12 10:29:16;;;;;;;;;;;22.50;93.80;;;;;;5093894;28;20479;-73
2023/08/12 10:31:44;;;;;;;;;;;22.50;93.20;;;;;;5075774;28;20006;-74
2023/08/12 10:34:18;;;;;;;;;;;22.60;92.90;;;;;;5094021;28;20292;-73
2023/08/12 10:36:43;;;;;;;;;;;22.70;93.10;;;;;;5093353;28;19943;-75
2023/08/12 10:39:12;;;;;;;;;;;22.70;93.10;;;;;;5093524;28;20437;-73
2023/08/12 10:41:37;;;;;;;;;;;22.70;92.90;;;;;;5074578;28;20000;-73
2023/08/12 10:44:05;;;;;;;;;;;22.70;93.20;;;;;;5093277;28;20399;-73
2023/08/12 10:46:32;;;;;;;;;;;22.80;93.00;;;;;;5092692;28;20440;-73
2023/08/12 10:48:59;;;;;;;;;;;22.80;93.10;;;;;;5093182;28;19916;-71
2023/08/12 10:51:39;;;;;;;;;;;22.90;93.10;;;;;;5093417;28;20008;-73
2023/08/12 10:54:17;;;;;;;;;;;22.90;92.90;;;;;;5101694;28;19912;-73
2023/08/12 10:57:01;;;;;;;;;;;23.00;93.20;;;;;;5100718;28;19916;-71
2023/08/12 10:59:53;;;;;;;;;;;23.10;93.40;;;;;;5095701;28;20426;-71
2023/08/12 11:02:34;;;;;;;;;;;23.10;92.90;;;;;;5081591;28;19915;-72
2023/08/12 11:05:03;;;;;;;;;;;23.10;93.30;;;;;;5092237;28;20385;-71
2023/08/12 11:07:38;;;;;;;;;;;23.10;93.20;;;;;;5072783;28;19912;-72
2023/08/12 11:10:09;;;;;;;;;;;23.10;92.90;;;;;;5090481;28;19939;-71
2023/08/12 11:12:35;;;;;;;;;;;23.10;92.90;;;;;;5094989;28;19916;-72
2023/08/12 11:15:01;;;;;;;;;;;23.10;93.30;;;;;;5092194;28;19956;-72
2023/08/12 11:17:29;;;;;;;;;;;23.10;93.60;;;;;;5097870;28;19919;-72
2023/08/12 11:19:55;;;;;;;;;;;23.00;93.50;;;;;;5069851;28;20466;-72
2023/08/12 11:22:20;;;;;;;;;;;23.00;93.70;;;;;;5069960;28;19913;-72
2023/08/12 11:24:46;;;;;;;;;;;22.90;93.70;;;;;;5097274;28;20256;-72
2023/08/12 11:27:13;;;;;;;;;;;22.90;93.90;;;;;;5071556;28;19920;-72
2023/08/12 11:29:39;;;;;;;;;;;22.90;93.80;;;;;;5091433;28;20028;-71
2023/08/12 11:32:08;;;;;;;;;;;22.90;93.70;;;;;;5090111;28;20001;-73
2023/08/12 11:34:33;;;;;;;;;;;22.80;93.80;;;;;;5090439;28;19919;-72
2023/08/12 11:36:59;;;;;;;;;;;22.80;93.80;;;;;;5089875;28;19916;-72
2023/08/12 11:39:24;;;;;;;;;;;22.70;93.70;;;;;;5090048;28;19919;-73
2023/08/12 11:41:52;;;;;;;;;;;22.70;93.90;;;;;;5089778;28;19916;-73
2023/08/12 11:44:21;;;;;;;;;;;22.80;93.80;;;;;;5090242;28;19961;-73
2023/08/12 11:46:47;;;;;;;;;;;22.80;93.70;;;;;;5090806;28;19923;-73
2023/08/12 11:49:12;;;;;;;;;;;22.80;93.90;;;;;;5089837;28;19916;-73
2023/08/12 11:51:38;;;;;;;;;;;22.80;93.90;;;;;;5089793;28;20028;-73
2023/08/12 11:54:04;;;;;;;;;;;22.80;93.70;;;;;;5076835;28;19912;-73
2023/08/12 11:56:30;;;;;;;;;;;22.80;93.90;;;;;;5081739;28;19916;-72
2023/08/12 11:58:55;;;;;;;;;;;22.80;94.00;;;;;;5088294;28;19912;-72
2023/08/12 12:01:21;;;;;;;;;;;22.80;94.00;;;;;;5095317;28;20280;-73
2023/08/12 12:03:53;;;;;;;;;;;22.80;93.80;;;;;;5088954;28;19912;-72
2023/08/12 12:06:27;;;;;;;;;;;22.90;93.80;;;;;;5088428;28;19912;-72
2023/08/12 12:08:54;;;;;;;;;;;22.90;93.80;;;;;;5089945;28;20701;-72
2023/08/12 12:11:19;;;;;;;;;;;22.90;93.90;;;;;;5088526;28;20288;-72
2023/08/12 12:13:47;;;;;;;;;;;22.90;93.90;;;;;;5084694;28;19909;-72
2023/08/12 12:16:12;;;;;;;;;;;22.90;93.80;;;;;;5068009;28;19944;-73
2023/08/12 12:18:38;;;;;;;;;;;22.80;93.80;;;;;;5050005;28;19997;-73
2023/08/12 12:21:04;;;;;;;;;;;22.80;93.70;;;;;;5072957;28;19912;-72
2023/08/12 12:23:30;;;;;;;;;;;22.80;93.70;;;;;;5100450;28;20393;-72
2023/08/12 12:26:02;;;;;;;;;;;22.80;93.60;;;;;;5087254;28;19912;-72
2023/08/12 12:28:28;;;;;;;;;;;22.80;93.60;;;;;;5087649;28;19999;-73
2023/08/12 12:30:53;;;;;;;;;;;22.80;93.80;;;;;;5087804;28;20459;-73
2023/08/12 12:33:19;;;;;;;;;;;22.80;93.70;;;;;;5087464;28;19912;-73
2023/08/12 12:35:45;;;;;;;;;;;22.90;93.80;;;;;;5069036;28;20014;-72
2023/08/12 12:38:11;;;;;;;;;;;22.90;93.60;;;;;;5093342;28;19912;-72
2023/08/12 12:40:37;;;;;;;;;;;23.00;94.00;;;;;;5107476;28;19911;-72
2023/08/12 12:43:03;;;;;;;;;;;23.10;93.50;;;;;;5074727;28;19912;-73
2023/08/12 12:45:29;;;;;;;;;;;23.20;93.60;;;;;;5087069;28;20496;-72
2023/08/12 12:47:54;;;;;;;;;;;23.30;93.40;;;;;;5085500;28;20007;-73
2023/08/12 12:50:20;;;;;;;;;;;23.40;93.50;;;;;;5094000;28;19927;-72
2023/08/12 12:52:45;;;;;;;;;;;23.40;93.40;;;;;;5089845;28;19955;-73
2023/08/12 12:55:11;;;;;;;;;;;23.40;93.10;;;;;;5094321;28;19926;-73
2023/08/12 12:57:36;;;;;;;;;;;23.40;93.20;;;;;;5087253;28;19934;-73
2023/08/12 13:00:04;;;;;;;;;;;23.30;93.30;;;;;;5087230;28;19920;-73
2023/08/12 13:02:29;;;;;;;;;;;23.30;93.40;;;;;;5087114;28;19912;-72
2023/08/12 13:04:55;;;;;;;;;;;23.30;93.50;;;;;;5086961;28;19912;-72
2023/08/12 13:07:21;;;;;;;;;;;23.20;93.60;;;;;;5081027;28;20386;-72
2023/08/12 13:09:46;;;;;;;;;;;23.10;93.70;;;;;;5069065;28;20493;-72
2023/08/12 13:12:12;;;;;;;;;;;23.10;93.60;;;;;;5087159;28;20011;-72
2023/08/12 13:14:37;;;;;;;;;;;23.10;93.70;;;;;;5087712;28;19962;-72
2023/08/12 13:17:03;;;;;;;;;;;23.10;93.70;;;;;;5087491;28;20280;-72
2023/08/12 13:19:28;;;;;;;;;;;23.00;93.70;;;;;;5069019;28;19947;-72
2023/08/12 13:21:54;;;;;;;;;;;23.00;93.70;;;;;;5106474;28;19916;-72
2023/08/12 13:24:20;;;;;;;;;;;23.00;93.70;;;;;;5091294;28;20589;-72
2023/08/12 13:26:45;;;;;;;;;;;22.90;93.70;;;;;;5068149;28;20007;-72
2023/08/12 13:29:11;;;;;;;;;;;22.90;93.80;;;;;;5067183;28;20476;-72
2023/08/12 13:31:36;;;;;;;;;;;22.90;93.80;;;;;;5066082;28;19915;-72
2023/08/12 13:34:02;;;;;;;;;;;22.90;93.90;;;;;;5072628;28;19912;-72
2023/08/12 13:36:29;;;;;;;;;;;22.90;93.70;;;;;;5081881;28;19916;-72
2023/08/12 13:38:54;;;;;;;;;;;22.90;94.00;;;;;;5083912;28;20002;-72
2023/08/12 13:41:20;;;;;;;;;;;22.90;93.90;;;;;;5087226;28;20419;-72
2023/08/12 13:43:46;;;;;;;;;;;22.90;93.90;;;;;;5083353;28;20542;-73
2023/08/12 13:46:11;;;;;;;;;;;22.90;93.70;;;;;;5082873;28;19912;-73
2023/08/12 13:48:37;;;;;;;;;;;23.00;93.80;;;;;;5073055;28;20010;-73
2023/08/12 13:51:03;;;;;;;;;;;23.10;93.60;;;;;;5086515;28;20022;-73
2023/08/12 13:53:28;;;;;;;;;;;23.10;93.70;;;;;;5095592;28;19916;-73
2023/08/12 13:55:54;;;;;;;;;;;23.20;93.80;;;;;;5090349;28;19919;-73
2023/08/12 13:58:19;;;;;;;;;;;23.10;93.60;;;;;;5106409;28;19937;-73
2023/08/12 14:00:45;;;;;;;;;;;23.10;93.60;;;;;;5106608;28;19907;-73
2023/08/12 14:03:10;;;;;;;;;;;23.10;93.70;;;;;;5087690;28;19915;-73
2023/08/12 14:05:36;;;;;;;;;;;23.10;93.70;;;;;;5085986;28;20333;-73
2023/08/12 14:08:01;;;;;;;;;;;23.10;93.90;;;;;;5085924;28;19948;-73
2023/08/12 14:10:27;;;;;;;;;;;23.00;94.00;;;;;;5087115;28;19978;-73